sensor_id;sensor_type;location;lat;lon;timestamp;P1;durP1;ratioP1;P2;durP2;ratioP2
2610;SDS011;5612;51.134;17.058;2023-08-31T00:01:25;8.47;;;7.40;;
2610;SDS011;5612;51.134;17.058;2023-08-31T00:03:55;8.10;;;7.40;;
2610;SDS011;5612;51.134;17.058;2023-08-31T00:06:23;7.87;;;7.13;;
2610;SDS011;5612;51.134;17.058;2023-08-31T00:08:52;7.07;;;6.47;;
2610;SDS011;5612;51.134;17.058;2023-08-31T00:11:23;7.37;;;6.77;;
2610;SDS011;5612;51.134;17.058;2023-08-31T00:13:52;7.30;;;6.70;;
2610;SDS011;5612;51.134;17.058;2023-08-31T00:16:24;7.43;;;6.73;;
2610;SDS011;5612;51.134;17.058;2023-08-31T00:18:53;7.67;;;6.47;;
2610;SDS011;5612;51.134;17.058;2023-08-31T00:21:23;6.90;;;6.30;;
2610;SDS011;5612;51.134;17.058;2023-08-31T00:23:52;7.70;;;6.93;;
2610;SDS011;5612;51.134;17.058;2023-08-31T00:26:23;8.40;;;7.70;;
2610;SDS011;5612;51.134;17.058;2023-08-31T00:28:52;8.00;;;6.97;;
2610;SDS011;5612;51.134;17.058;2023-08-31T00:31:21;8.23;;;7.53;;
2610;SDS011;5612;51.134;17.058;2023-08-31T00:33:49;9.10;;;6.73;;
2610;SDS011;5612;51.134;17.058;2023-08-31T00:36:18;7.83;;;7.20;;
2610;SDS011;5612;51.134;17.058;2023-08-31T00:38:47;7.93;;;7.13;;
2610;SDS011;5612;51.134;17.058;2023-08-31T00:41:16;7.90;;;7.20;;
2610;SDS011;5612;51.134;17.058;2023-08-31T00:43:46;7.50;;;6.07;;
2610;SDS011;5612;51.134;17.058;2023-08-31T00:46:15;7.27;;;6.53;;
2610;SDS011;5612;51.134;17.058;2023-08-31T00:48:44;7.60;;;7.00;;
2610;SDS011;5612;51.134;17.058;2023-08-31T00:51:13;6.30;;;5.80;;
2610;SDS011;5612;51.134;17.058;2023-08-31T00:53:42;7.60;;;7.00;;
2610;SDS011;5612;51.134;17.058;2023-08-31T00:56:11;7.23;;;6.53;;
2610;SDS011;5612;51.134;17.058;2023-08-31T00:58:41;6.80;;;6.20;;
2610;SDS011;5612;51.134;17.058;2023-08-31T01:01:12;7.53;;;6.83;;
2610;SDS011;5612;51.134;17.058;2023-08-31T01:03:48;7.83;;;7.13;;
2610;SDS011;5612;51.134;17.058;2023-08-31T01:06:26;8.47;;;7.67;;
2610;SDS011;5612;51.134;17.058;2023-08-31T01:09:02;7.50;;;6.83;;
2610;SDS011;5612;51.134;17.058;2023-08-31T01:11:41;9.07;;;8.33;;
2610;SDS011;5612;51.134;17.058;2023-08-31T01:14:23;8.57;;;7.80;;
2610;SDS011;5612;51.134;17.058;2023-08-31T01:16:56;7.57;;;6.87;;
2610;SDS011;5612;51.134;17.058;2023-08-31T01:19:31;8.03;;;7.33;;
2610;SDS011;5612;51.134;17.058;2023-08-31T01:22:14;9.10;;;8.20;;
2610;SDS011;5612;51.134;17.058;2023-08-31T01:24:59;9.20;;;8.40;;
2610;SDS011;5612;51.134;17.058;2023-08-31T01:27:31;7.87;;;7.33;;
2610;SDS011;5612;51.134;17.058;2023-08-31T01:30:00;8.70;;;8.10;;
2610;SDS011;5612;51.134;17.058;2023-08-31T01:32:30;8.97;;;8.27;;
2610;SDS011;5612;51.134;17.058;2023-08-31T01:34:59;8.50;;;7.80;;
2610;SDS011;5612;51.134;17.058;2023-08-31T01:37:34;7.90;;;7.30;;
2610;SDS011;5612;51.134;17.058;2023-08-31T01:40:12;8.80;;;8.10;;
2610;SDS011;5612;51.134;17.058;2023-08-31T01:42:44;8.80;;;8.00;;
2610;SDS011;5612;51.134;17.058;2023-08-31T01:45:15;8.50;;;7.80;;
2610;SDS011;5612;51.134;17.058;2023-08-31T01:47:48;8.63;;;7.80;;
2610;SDS011;5612;51.134;17.058;2023-08-31T01:50:17;9.03;;;8.13;;
2610;SDS011;5612;51.134;17.058;2023-08-31T01:52:46;7.30;;;6.80;;
2610;SDS011;5612;51.134;17.058;2023-08-31T01:55:17;7.87;;;7.17;;
2610;SDS011;5612;51.134;17.058;2023-08-31T01:57:46;8.80;;;8.10;;
2610;SDS011;5612;51.134;17.058;2023-08-31T02:00:16;9.07;;;8.17;;
2610;SDS011;5612;51.134;17.058;2023-08-31T02:02:46;7.40;;;6.80;;
2610;SDS011;5612;51.134;17.058;2023-08-31T02:05:15;7.53;;;6.97;;
2610;SDS011;5612;51.134;17.058;2023-08-31T02:07:43;8.97;;;8.30;;
2610;SDS011;5612;51.134;17.058;2023-08-31T02:10:12;7.10;;;6.50;;
2610;SDS011;5612;51.134;17.058;2023-08-31T02:12:43;7.93;;;7.33;;
2610;SDS011;5612;51.134;17.058;2023-08-31T02:15:11;8.20;;;7.50;;
2610;SDS011;5612;51.134;17.058;2023-08-31T02:17:40;8.63;;;7.83;;
2610;SDS011;5612;51.134;17.058;2023-08-31T02:20:10;7.47;;;6.87;;
2610;SDS011;5612;51.134;17.058;2023-08-31T02:22:41;7.60;;;7.10;;
2610;SDS011;5612;51.134;17.058;2023-08-31T02:25:09;6.93;;;6.43;;
2610;SDS011;5612;51.134;17.058;2023-08-31T02:27:39;7.93;;;7.33;;
2610;SDS011;5612;51.134;17.058;2023-08-31T02:30:09;7.60;;;6.90;;
2610;SDS011;5612;51.134;17.058;2023-08-31T02:32:38;7.70;;;7.10;;
2610;SDS011;5612;51.134;17.058;2023-08-31T02:35:07;7.20;;;6.60;;
2610;SDS011;5612;51.134;17.058;2023-08-31T02:37:36;7.47;;;6.87;;
2610;SDS011;5612;51.134;17.058;2023-08-31T02:40:05;8.00;;;7.30;;
2610;SDS011;5612;51.134;17.058;2023-08-31T02:42:36;8.23;;;7.53;;
2610;SDS011;5612;51.134;17.058;2023-08-31T02:45:06;9.43;;;8.53;;
2610;SDS011;5612;51.134;17.058;2023-08-31T02:47:36;8.83;;;8.03;;
2610;SDS011;5612;51.134;17.058;2023-08-31T02:50:06;8.80;;;8.00;;
2610;SDS011;5612;51.134;17.058;2023-08-31T02:52:35;8.67;;;7.90;;
2610;SDS011;5612;51.134;17.058;2023-08-31T02:55:04;8.70;;;7.97;;
2610;SDS011;5612;51.134;17.058;2023-08-31T02:57:34;9.73;;;8.73;;
2610;SDS011;5612;51.134;17.058;2023-08-31T03:00:03;9.17;;;8.30;;
2610;SDS011;5612;51.134;17.058;2023-08-31T03:02:38;9.40;;;8.40;;
2610;SDS011;5612;51.134;17.058;2023-08-31T03:05:07;8.80;;;8.00;;
2610;SDS011;5612;51.134;17.058;2023-08-31T03:07:36;9.10;;;8.30;;
2610;SDS011;5612;51.134;17.058;2023-08-31T03:10:05;9.50;;;8.70;;
2610;SDS011;5612;51.134;17.058;2023-08-31T03:12:34;9.47;;;8.67;;
2610;SDS011;5612;51.134;17.058;2023-08-31T03:15:04;8.80;;;8.10;;
2610;SDS011;5612;51.134;17.058;2023-08-31T03:17:34;10.07;;;9.03;;
2610;SDS011;5612;51.134;17.058;2023-08-31T03:20:05;9.03;;;8.23;;
2610;SDS011;5612;51.134;17.058;2023-08-31T03:22:35;8.80;;;8.10;;
2610;SDS011;5612;51.134;17.058;2023-08-31T03:25:04;10.10;;;8.40;;
2610;SDS011;5612;51.134;17.058;2023-08-31T03:27:33;10.73;;;8.53;;
2610;SDS011;5612;51.134;17.058;2023-08-31T03:30:03;9.50;;;8.60;;
2610;SDS011;5612;51.134;17.058;2023-08-31T03:32:32;10.13;;;9.30;;
2610;SDS011;5612;51.134;17.058;2023-08-31T03:35:01;9.47;;;8.57;;
2610;SDS011;5612;51.134;17.058;2023-08-31T03:37:32;9.60;;;8.80;;
2610;SDS011;5612;51.134;17.058;2023-08-31T03:40:01;10.00;;;9.20;;
2610;SDS011;5612;51.134;17.058;2023-08-31T03:42:33;9.50;;;8.60;;
2610;SDS011;5612;51.134;17.058;2023-08-31T03:45:02;14.73;;;10.73;;
2610;SDS011;5612;51.134;17.058;2023-08-31T03:47:32;9.83;;;8.93;;
2610;SDS011;5612;51.134;17.058;2023-08-31T03:50:01;10.93;;;9.67;;
2610;SDS011;5612;51.134;17.058;2023-08-31T03:52:30;10.60;;;9.27;;
2610;SDS011;5612;51.134;17.058;2023-08-31T03:55:01;8.87;;;8.07;;
2610;SDS011;5612;51.134;17.058;2023-08-31T03:57:29;10.70;;;9.70;;
2610;SDS011;5612;51.134;17.058;2023-08-31T03:59:58;9.97;;;9.00;;
2610;SDS011;5612;51.134;17.058;2023-08-31T04:02:27;9.80;;;9.00;;
2610;SDS011;5612;51.134;17.058;2023-08-31T04:04:58;8.60;;;7.77;;
2610;SDS011;5612;51.134;17.058;2023-08-31T04:07:26;11.07;;;10.10;;
2610;SDS011;5612;51.134;17.058;2023-08-31T04:09:57;10.47;;;9.47;;
2610;SDS011;5612;51.134;17.058;2023-08-31T04:12:25;10.30;;;9.30;;
2610;SDS011;5612;51.134;17.058;2023-08-31T04:14:56;10.30;;;9.30;;
2610;SDS011;5612;51.134;17.058;2023-08-31T04:17:25;10.20;;;9.30;;
2610;SDS011;5612;51.134;17.058;2023-08-31T04:19:54;14.60;;;9.03;;
2610;SDS011;5612;51.134;17.058;2023-08-31T04:22:23;10.43;;;9.33;;
2610;SDS011;5612;51.134;17.058;2023-08-31T04:24:52;10.77;;;9.77;;
2610;SDS011;5612;51.134;17.058;2023-08-31T04:27:23;10.97;;;9.90;;
2610;SDS011;5612;51.134;17.058;2023-08-31T04:29:52;10.50;;;9.47;;
2610;SDS011;5612;51.134;17.058;2023-08-31T04:32:20;10.70;;;9.90;;
2610;SDS011;5612;51.134;17.058;2023-08-31T04:34:49;10.10;;;9.40;;
2610;SDS011;5612;51.134;17.058;2023-08-31T04:37:20;10.27;;;9.17;;
2610;SDS011;5612;51.134;17.058;2023-08-31T04:39:49;11.80;;;10.70;;
2610;SDS011;5612;51.134;17.058;2023-08-31T04:42:18;13.70;;;9.60;;
2610;SDS011;5612;51.134;17.058;2023-08-31T04:44:49;9.90;;;8.90;;
2610;SDS011;5612;51.134;17.058;2023-08-31T04:47:18;10.13;;;9.23;;
2610;SDS011;5612;51.134;17.058;2023-08-31T04:49:47;11.33;;;10.20;;
2610;SDS011;5612;51.134;17.058;2023-08-31T04:52:16;9.83;;;8.83;;
2610;SDS011;5612;51.134;17.058;2023-08-31T04:54:44;11.37;;;10.37;;
2610;SDS011;5612;51.134;17.058;2023-08-31T04:57:13;10.57;;;9.73;;
2610;SDS011;5612;51.134;17.058;2023-08-31T04:59:42;10.37;;;9.40;;
2610;SDS011;5612;51.134;17.058;2023-08-31T05:02:12;13.93;;;10.70;;
2610;SDS011;5612;51.134;17.058;2023-08-31T05:04:41;13.37;;;11.00;;
2610;SDS011;5612;51.134;17.058;2023-08-31T05:07:10;13.10;;;10.13;;
2610;SDS011;5612;51.134;17.058;2023-08-31T05:09:39;12.33;;;11.23;;
2610;SDS011;5612;51.134;17.058;2023-08-31T05:12:08;11.03;;;9.80;;
2610;SDS011;5612;51.134;17.058;2023-08-31T05:14:38;10.17;;;9.30;;
2610;SDS011;5612;51.134;17.058;2023-08-31T05:17:07;10.70;;;9.80;;
2610;SDS011;5612;51.134;17.058;2023-08-31T05:19:37;11.20;;;10.10;;
2610;SDS011;5612;51.134;17.058;2023-08-31T05:22:06;11.60;;;10.60;;
2610;SDS011;5612;51.134;17.058;2023-08-31T05:24:35;10.10;;;9.20;;
2610;SDS011;5612;51.134;17.058;2023-08-31T05:27:04;10.10;;;9.20;;
2610;SDS011;5612;51.134;17.058;2023-08-31T05:29:32;10.80;;;9.90;;
2610;SDS011;5612;51.134;17.058;2023-08-31T05:32:02;11.20;;;10.20;;
2610;SDS011;5612;51.134;17.058;2023-08-31T05:34:42;11.17;;;10.27;;
2610;SDS011;5612;51.134;17.058;2023-08-31T05:37:31;11.40;;;10.40;;
2610;SDS011;5612;51.134;17.058;2023-08-31T05:40:02;11.20;;;10.40;;
2610;SDS011;5612;51.134;17.058;2023-08-31T05:42:33;11.77;;;10.87;;
2610;SDS011;5612;51.134;17.058;2023-08-31T05:45:02;11.03;;;10.03;;
2610;SDS011;5612;51.134;17.058;2023-08-31T05:47:32;11.47;;;10.40;;
2610;SDS011;5612;51.134;17.058;2023-08-31T05:50:03;12.83;;;11.80;;
2610;SDS011;5612;51.134;17.058;2023-08-31T05:52:33;9.73;;;9.00;;
2610;SDS011;5612;51.134;17.058;2023-08-31T05:55:02;10.30;;;9.50;;
2610;SDS011;5612;51.134;17.058;2023-08-31T05:57:33;11.20;;;10.40;;
2610;SDS011;5612;51.134;17.058;2023-08-31T06:00:02;12.23;;;11.13;;
2610;SDS011;5612;51.134;17.058;2023-08-31T06:02:32;11.87;;;10.73;;
2610;SDS011;5612;51.134;17.058;2023-08-31T06:05:04;11.47;;;10.57;;
2610;SDS011;5612;51.134;17.058;2023-08-31T06:07:33;13.27;;;11.93;;
2610;SDS011;5612;51.134;17.058;2023-08-31T06:10:02;11.27;;;10.37;;
2610;SDS011;5612;51.134;17.058;2023-08-31T06:12:32;12.00;;;10.80;;
2610;SDS011;5612;51.134;17.058;2023-08-31T06:15:01;14.33;;;12.77;;
2610;SDS011;5612;51.134;17.058;2023-08-31T06:17:31;14.70;;;13.30;;
2610;SDS011;5612;51.134;17.058;2023-08-31T06:20:01;13.33;;;12.10;;
2610;SDS011;5612;51.134;17.058;2023-08-31T06:22:36;13.17;;;12.17;;
2610;SDS011;5612;51.134;17.058;2023-08-31T06:25:04;13.13;;;11.83;;
2610;SDS011;5612;51.134;17.058;2023-08-31T06:27:34;13.13;;;12.03;;
2610;SDS011;5612;51.134;17.058;2023-08-31T06:30:03;13.57;;;12.20;;
2610;SDS011;5612;51.134;17.058;2023-08-31T06:32:34;12.23;;;11.33;;
2610;SDS011;5612;51.134;17.058;2023-08-31T06:35:05;13.07;;;11.97;;
2610;SDS011;5612;51.134;17.058;2023-08-31T06:37:34;11.30;;;10.40;;
2610;SDS011;5612;51.134;17.058;2023-08-31T06:40:03;10.73;;;9.87;;
2610;SDS011;5612;51.134;17.058;2023-08-31T06:42:33;12.10;;;11.10;;
2610;SDS011;5612;51.134;17.058;2023-08-31T06:45:02;12.50;;;11.23;;
2610;SDS011;5612;51.134;17.058;2023-08-31T06:47:32;11.30;;;10.50;;
2610;SDS011;5612;51.134;17.058;2023-08-31T06:50:01;10.97;;;10.07;;
2610;SDS011;5612;51.134;17.058;2023-08-31T06:52:33;9.40;;;8.70;;
2610;SDS011;5612;51.134;17.058;2023-08-31T06:55:03;8.50;;;7.90;;
2610;SDS011;5612;51.134;17.058;2023-08-31T06:57:32;9.63;;;8.67;;
2610;SDS011;5612;51.134;17.058;2023-08-31T07:00:03;9.53;;;8.43;;
2610;SDS011;5612;51.134;17.058;2023-08-31T07:02:36;9.30;;;8.67;;
2610;SDS011;5612;51.134;17.058;2023-08-31T07:05:07;8.10;;;7.60;;
2610;SDS011;5612;51.134;17.058;2023-08-31T07:07:39;7.57;;;7.00;;
2610;SDS011;5612;51.134;17.058;2023-08-31T07:10:08;9.07;;;8.37;;
2610;SDS011;5612;51.134;17.058;2023-08-31T07:12:37;8.53;;;7.77;;
2610;SDS011;5612;51.134;17.058;2023-08-31T07:15:06;7.70;;;7.10;;
2610;SDS011;5612;51.134;17.058;2023-08-31T07:17:35;7.63;;;7.03;;
2610;SDS011;5612;51.134;17.058;2023-08-31T07:20:05;7.43;;;6.80;;
2610;SDS011;5612;51.134;17.058;2023-08-31T07:22:36;8.13;;;6.40;;
2610;SDS011;5612;51.134;17.058;2023-08-31T07:25:07;7.83;;;7.23;;
2610;SDS011;5612;51.134;17.058;2023-08-31T07:27:36;7.87;;;7.07;;
2610;SDS011;5612;51.134;17.058;2023-08-31T07:30:05;7.63;;;6.90;;
2610;SDS011;5612;51.134;17.058;2023-08-31T07:32:35;7.03;;;6.53;;
2610;SDS011;5612;51.134;17.058;2023-08-31T07:35:04;7.63;;;7.03;;
2610;SDS011;5612;51.134;17.058;2023-08-31T07:37:33;8.63;;;7.93;;
2610;SDS011;5612;51.134;17.058;2023-08-31T07:40:04;8.83;;;8.23;;
2610;SDS011;5612;51.134;17.058;2023-08-31T07:42:36;9.37;;;8.60;;
2610;SDS011;5612;51.134;17.058;2023-08-31T07:45:06;8.80;;;8.20;;
2610;SDS011;5612;51.134;17.058;2023-08-31T07:47:35;9.50;;;8.80;;
2610;SDS011;5612;51.134;17.058;2023-08-31T07:50:05;9.13;;;8.43;;
2610;SDS011;5612;51.134;17.058;2023-08-31T07:52:36;9.83;;;9.03;;
2610;SDS011;5612;51.134;17.058;2023-08-31T07:55:07;8.30;;;7.50;;
2610;SDS011;5612;51.134;17.058;2023-08-31T07:57:36;11.30;;;10.30;;
2610;SDS011;5612;51.134;17.058;2023-08-31T08:00:06;7.60;;;6.90;;
2610;SDS011;5612;51.134;17.058;2023-08-31T08:02:35;8.47;;;7.87;;
2610;SDS011;5612;51.134;17.058;2023-08-31T08:05:04;8.63;;;7.87;;
2610;SDS011;5612;51.134;17.058;2023-08-31T08:07:34;8.10;;;7.40;;
2610;SDS011;5612;51.134;17.058;2023-08-31T08:10:03;9.27;;;8.40;;
2610;SDS011;5612;51.134;17.058;2023-08-31T08:12:38;7.97;;;7.47;;
2610;SDS011;5612;51.134;17.058;2023-08-31T08:15:07;7.60;;;7.10;;
2610;SDS011;5612;51.134;17.058;2023-08-31T08:17:35;7.80;;;7.10;;
2610;SDS011;5612;51.134;17.058;2023-08-31T08:20:05;11.13;;;7.37;;
2610;SDS011;5612;51.134;17.058;2023-08-31T08:22:36;9.23;;;8.63;;
2610;SDS011;5612;51.134;17.058;2023-08-31T08:25:05;7.83;;;7.33;;
2610;SDS011;5612;51.134;17.058;2023-08-31T08:27:34;8.17;;;7.57;;
2610;SDS011;5612;51.134;17.058;2023-08-31T08:30:05;7.30;;;6.70;;
2610;SDS011;5612;51.134;17.058;2023-08-31T08:32:36;8.00;;;7.40;;
2610;SDS011;5612;51.134;17.058;2023-08-31T08:35:05;7.43;;;6.83;;
2610;SDS011;5612;51.134;17.058;2023-08-31T08:37:34;6.80;;;6.30;;
2610;SDS011;5612;51.134;17.058;2023-08-31T08:40:03;7.67;;;7.07;;
2610;SDS011;5612;51.134;17.058;2023-08-31T08:42:33;7.67;;;6.97;;
2610;SDS011;5612;51.134;17.058;2023-08-31T08:45:13;6.93;;;6.53;;
2610;SDS011;5612;51.134;17.058;2023-08-31T08:47:43;6.43;;;5.93;;
2610;SDS011;5612;51.134;17.058;2023-08-31T08:50:13;7.50;;;7.10;;
2610;SDS011;5612;51.134;17.058;2023-08-31T08:52:42;8.10;;;7.50;;
2610;SDS011;5612;51.134;17.058;2023-08-31T08:55:12;7.90;;;7.43;;
2610;SDS011;5612;51.134;17.058;2023-08-31T08:57:41;7.33;;;6.83;;
2610;SDS011;5612;51.134;17.058;2023-08-31T09:00:12;7.43;;;6.93;;
2610;SDS011;5612;51.134;17.058;2023-08-31T09:02:42;7.13;;;6.63;;
2610;SDS011;5612;51.134;17.058;2023-08-31T09:05:12;7.40;;;6.90;;
2610;SDS011;5612;51.134;17.058;2023-08-31T09:10:35;7.10;;;6.60;;
2610;SDS011;5612;51.134;17.058;2023-08-31T09:13:05;7.70;;;7.10;;
2610;SDS011;5612;51.134;17.058;2023-08-31T09:15:37;4.33;;;4.10;;
2610;SDS011;5612;51.134;17.058;2023-08-31T09:18:10;3.77;;;3.50;;
2610;SDS011;5612;51.134;17.058;2023-08-31T09:20:43;3.90;;;3.70;;
2610;SDS011;5612;51.134;17.058;2023-08-31T09:23:13;3.13;;;2.93;;
2610;SDS011;5612;51.134;17.058;2023-08-31T09:25:43;3.27;;;2.97;;
2610;SDS011;5612;51.134;17.058;2023-08-31T09:28:12;3.40;;;3.20;;
2610;SDS011;5612;51.134;17.058;2023-08-31T09:30:43;4.13;;;3.83;;
2610;SDS011;5612;51.134;17.058;2023-08-31T09:33:14;3.30;;;3.10;;
2610;SDS011;5612;51.134;17.058;2023-08-31T09:35:49;3.00;;;2.80;;
2610;SDS011;5612;51.134;17.058;2023-08-31T09:38:20;3.17;;;2.87;;
2610;SDS011;5612;51.134;17.058;2023-08-31T09:40:49;3.90;;;3.70;;
2610;SDS011;5612;51.134;17.058;2023-08-31T09:43:19;4.00;;;3.60;;
2610;SDS011;5612;51.134;17.058;2023-08-31T09:45:50;2.87;;;2.73;;
2610;SDS011;5612;51.134;17.058;2023-08-31T09:48:20;4.10;;;3.53;;
2610;SDS011;5612;51.134;17.058;2023-08-31T09:50:51;3.80;;;3.50;;
2610;SDS011;5612;51.134;17.058;2023-08-31T09:53:23;6.20;;;4.07;;
2610;SDS011;5612;51.134;17.058;2023-08-31T09:55:55;5.10;;;4.80;;
2610;SDS011;5612;51.134;17.058;2023-08-31T09:58:25;4.90;;;4.60;;
2610;SDS011;5612;51.134;17.058;2023-08-31T10:00:57;5.53;;;5.03;;
2610;SDS011;5612;51.134;17.058;2023-08-31T10:03:30;4.53;;;4.23;;
2610;SDS011;5612;51.134;17.058;2023-08-31T10:05:59;4.10;;;3.80;;
2610;SDS011;5612;51.134;17.058;2023-08-31T10:08:30;4.50;;;4.23;;
2610;SDS011;5612;51.134;17.058;2023-08-31T10:11:01;4.77;;;4.47;;
2610;SDS011;5612;51.134;17.058;2023-08-31T10:13:31;4.30;;;4.00;;
2610;SDS011;5612;51.134;17.058;2023-08-31T10:16:06;4.20;;;3.80;;
2610;SDS011;5612;51.134;17.058;2023-08-31T10:18:35;4.43;;;4.13;;
2610;SDS011;5612;51.134;17.058;2023-08-31T10:21:04;4.33;;;3.70;;
2610;SDS011;5612;51.134;17.058;2023-08-31T10:23:33;5.27;;;4.87;;
2610;SDS011;5612;51.134;17.058;2023-08-31T10:26:05;5.43;;;4.93;;
2610;SDS011;5612;51.134;17.058;2023-08-31T10:28:41;5.20;;;4.30;;
2610;SDS011;5612;51.134;17.058;2023-08-31T10:31:15;4.73;;;4.43;;
2610;SDS011;5612;51.134;17.058;2023-08-31T10:33:45;4.83;;;4.43;;
2610;SDS011;5612;51.134;17.058;2023-08-31T10:36:37;5.37;;;5.03;;
2610;SDS011;5612;51.134;17.058;2023-08-31T10:42:48;5.83;;;5.07;;
2610;SDS011;5612;51.134;17.058;2023-08-31T10:45:43;5.90;;;5.47;;
2610;SDS011;5612;51.134;17.058;2023-08-31T10:48:14;6.17;;;5.60;;
2610;SDS011;5612;51.134;17.058;2023-08-31T10:50:45;6.57;;;6.17;;
2610;SDS011;5612;51.134;17.058;2023-08-31T10:53:14;5.37;;;4.97;;
2610;SDS011;5612;51.134;17.058;2023-08-31T10:55:50;6.50;;;6.00;;
2610;SDS011;5612;51.134;17.058;2023-08-31T10:58:20;5.40;;;5.00;;
2610;SDS011;5612;51.134;17.058;2023-08-31T11:00:50;5.17;;;4.67;;
2610;SDS011;5612;51.134;17.058;2023-08-31T11:03:21;5.03;;;4.63;;
2610;SDS011;5612;51.134;17.058;2023-08-31T11:05:50;4.83;;;4.53;;
2610;SDS011;5612;51.134;17.058;2023-08-31T11:08:22;4.30;;;4.00;;
2610;SDS011;5612;51.134;17.058;2023-08-31T11:10:52;3.73;;;3.53;;
2610;SDS011;5612;51.134;17.058;2023-08-31T11:13:22;3.77;;;3.57;;
2610;SDS011;5612;51.134;17.058;2023-08-31T11:15:51;3.27;;;3.07;;
2610;SDS011;5612;51.134;17.058;2023-08-31T11:18:22;3.47;;;3.10;;
2610;SDS011;5612;51.134;17.058;2023-08-31T11:20:51;3.20;;;2.97;;
2610;SDS011;5612;51.134;17.058;2023-08-31T11:23:22;3.13;;;2.70;;
2610;SDS011;5612;51.134;17.058;2023-08-31T11:25:51;3.00;;;2.80;;
2610;SDS011;5612;51.134;17.058;2023-08-31T11:28:20;3.23;;;3.03;;
2610;SDS011;5612;51.134;17.058;2023-08-31T11:30:48;3.97;;;3.30;;
2610;SDS011;5612;51.134;17.058;2023-08-31T11:33:17;2.87;;;2.67;;
2610;SDS011;5612;51.134;17.058;2023-08-31T11:35:48;4.33;;;2.57;;
2610;SDS011;5612;51.134;17.058;2023-08-31T11:38:17;2.30;;;2.20;;
2610;SDS011;5612;51.134;17.058;2023-08-31T11:40:47;3.20;;;3.00;;
2610;SDS011;5612;51.134;17.058;2023-08-31T11:43:18;3.57;;;2.80;;
2610;SDS011;5612;51.134;17.058;2023-08-31T11:45:48;2.50;;;2.40;;
2610;SDS011;5612;51.134;17.058;2023-08-31T11:48:17;2.43;;;2.33;;
2610;SDS011;5612;51.134;17.058;2023-08-31T11:50:48;3.00;;;2.80;;
2610;SDS011;5612;51.134;17.058;2023-08-31T11:53:19;2.47;;;2.37;;
2610;SDS011;5612;51.134;17.058;2023-08-31T11:55:51;3.10;;;2.83;;
2610;SDS011;5612;51.134;17.058;2023-08-31T11:58:20;2.63;;;2.50;;
2610;SDS011;5612;51.134;17.058;2023-08-31T12:00:57;2.80;;;2.60;;
2610;SDS011;5612;51.134;17.058;2023-08-31T12:03:27;2.63;;;2.53;;
2610;SDS011;5612;51.134;17.058;2023-08-31T12:06:16;4.73;;;2.93;;
2610;SDS011;5612;51.134;17.058;2023-08-31T12:08:46;2.80;;;2.60;;
2610;SDS011;5612;51.134;17.058;2023-08-31T12:11:15;2.97;;;2.77;;
2610;SDS011;5612;51.134;17.058;2023-08-31T12:13:44;3.00;;;2.67;;
2610;SDS011;5612;51.134;17.058;2023-08-31T12:16:13;4.13;;;2.67;;
2610;SDS011;5612;51.134;17.058;2023-08-31T12:18:44;2.60;;;2.50;;
2610;SDS011;5612;51.134;17.058;2023-08-31T12:21:13;2.13;;;2.03;;
2610;SDS011;5612;51.134;17.058;2023-08-31T12:23:44;3.10;;;2.67;;
2610;SDS011;5612;51.134;17.058;2023-08-31T12:26:12;3.33;;;2.83;;
2610;SDS011;5612;51.134;17.058;2023-08-31T12:28:41;2.60;;;2.50;;
2610;SDS011;5612;51.134;17.058;2023-08-31T12:31:10;4.13;;;3.80;;
2610;SDS011;5612;51.134;17.058;2023-08-31T12:33:39;3.23;;;3.03;;
2610;SDS011;5612;51.134;17.058;2023-08-31T12:36:09;3.23;;;3.00;;
2610;SDS011;5612;51.134;17.058;2023-08-31T12:38:50;2.80;;;2.60;;
2610;SDS011;5612;51.134;17.058;2023-08-31T12:41:19;3.00;;;2.70;;
2610;SDS011;5612;51.134;17.058;2023-08-31T12:43:50;2.87;;;2.67;;
2610;SDS011;5612;51.134;17.058;2023-08-31T12:46:19;3.40;;;3.20;;
2610;SDS011;5612;51.134;17.058;2023-08-31T12:48:48;2.60;;;2.50;;
2610;SDS011;5612;51.134;17.058;2023-08-31T12:51:17;2.90;;;2.70;;
2610;SDS011;5612;51.134;17.058;2023-08-31T12:53:49;2.00;;;1.90;;
2610;SDS011;5612;51.134;17.058;2023-08-31T12:56:18;3.60;;;3.30;;
2610;SDS011;5612;51.134;17.058;2023-08-31T12:58:49;3.53;;;3.23;;
2610;SDS011;5612;51.134;17.058;2023-08-31T13:01:19;4.03;;;3.30;;
2610;SDS011;5612;51.134;17.058;2023-08-31T13:03:50;3.07;;;2.83;;
2610;SDS011;5612;51.134;17.058;2023-08-31T13:06:19;2.90;;;2.70;;
2610;SDS011;5612;51.134;17.058;2023-08-31T13:08:50;2.93;;;2.73;;
2610;SDS011;5612;51.134;17.058;2023-08-31T13:11:18;3.43;;;3.23;;
2610;SDS011;5612;51.134;17.058;2023-08-31T13:13:50;2.77;;;2.53;;
2610;SDS011;5612;51.134;17.058;2023-08-31T13:16:19;3.90;;;2.97;;
2610;SDS011;5612;51.134;17.058;2023-08-31T13:18:51;2.73;;;2.57;;
2610;SDS011;5612;51.134;17.058;2023-08-31T13:21:20;3.40;;;3.07;;
2610;SDS011;5612;51.134;17.058;2023-08-31T13:23:51;2.93;;;2.80;;
2610;SDS011;5612;51.134;17.058;2023-08-31T13:26:20;3.30;;;3.00;;
2610;SDS011;5612;51.134;17.058;2023-08-31T13:28:48;2.63;;;2.43;;
2610;SDS011;5612;51.134;17.058;2023-08-31T13:31:17;3.30;;;3.03;;
2610;SDS011;5612;51.134;17.058;2023-08-31T13:33:46;2.83;;;2.63;;
2610;SDS011;5612;51.134;17.058;2023-08-31T13:36:15;3.00;;;2.80;;
2610;SDS011;5612;51.134;17.058;2023-08-31T13:38:44;3.57;;;3.17;;
2610;SDS011;5612;51.134;17.058;2023-08-31T13:41:21;2.70;;;2.60;;
2610;SDS011;5612;51.134;17.058;2023-08-31T13:43:50;2.90;;;2.70;;
2610;SDS011;5612;51.134;17.058;2023-08-31T13:46:19;2.67;;;2.47;;
2610;SDS011;5612;51.134;17.058;2023-08-31T13:48:48;2.53;;;2.37;;
2610;SDS011;5612;51.134;17.058;2023-08-31T13:51:17;2.13;;;2.03;;
2610;SDS011;5612;51.134;17.058;2023-08-31T13:53:46;2.70;;;2.50;;
2610;SDS011;5612;51.134;17.058;2023-08-31T13:56:15;2.70;;;2.50;;
2610;SDS011;5612;51.134;17.058;2023-08-31T13:58:45;3.00;;;2.70;;
2610;SDS011;5612;51.134;17.058;2023-08-31T14:01:14;2.27;;;2.07;;
2610;SDS011;5612;51.134;17.058;2023-08-31T14:03:43;2.43;;;2.33;;
2610;SDS011;5612;51.134;17.058;2023-08-31T14:06:12;3.63;;;2.63;;
2610;SDS011;5612;51.134;17.058;2023-08-31T14:08:42;3.40;;;2.57;;
2610;SDS011;5612;51.134;17.058;2023-08-31T14:11:11;6.80;;;3.37;;
2610;SDS011;5612;51.134;17.058;2023-08-31T14:13:42;2.37;;;2.27;;
2610;SDS011;5612;51.134;17.058;2023-08-31T14:16:14;3.20;;;2.90;;
2610;SDS011;5612;51.134;17.058;2023-08-31T14:18:43;3.30;;;2.90;;
2610;SDS011;5612;51.134;17.058;2023-08-31T14:21:14;2.33;;;2.13;;
2610;SDS011;5612;51.134;17.058;2023-08-31T14:23:44;2.23;;;2.10;;
2610;SDS011;5612;51.134;17.058;2023-08-31T14:26:13;2.53;;;2.10;;
2610;SDS011;5612;51.134;17.058;2023-08-31T14:28:42;2.77;;;2.60;;
2610;SDS011;5612;51.134;17.058;2023-08-31T14:31:12;2.20;;;2.00;;
2610;SDS011;5612;51.134;17.058;2023-08-31T14:33:44;2.13;;;1.97;;
2610;SDS011;5612;51.134;17.058;2023-08-31T14:36:14;2.20;;;2.00;;
2610;SDS011;5612;51.134;17.058;2023-08-31T14:38:45;2.70;;;2.03;;
2610;SDS011;5612;51.134;17.058;2023-08-31T14:41:14;2.67;;;2.23;;
2610;SDS011;5612;51.134;17.058;2023-08-31T14:43:44;2.53;;;2.40;;
2610;SDS011;5612;51.134;17.058;2023-08-31T14:46:13;2.77;;;2.57;;
2610;SDS011;5612;51.134;17.058;2023-08-31T14:48:44;2.10;;;1.93;;
2610;SDS011;5612;51.134;17.058;2023-08-31T14:51:15;2.57;;;2.47;;
2610;SDS011;5612;51.134;17.058;2023-08-31T14:53:45;2.70;;;2.30;;
2610;SDS011;5612;51.134;17.058;2023-08-31T14:56:15;1.90;;;1.80;;
2610;SDS011;5612;51.134;17.058;2023-08-31T14:58:45;2.60;;;2.40;;
2610;SDS011;5612;51.134;17.058;2023-08-31T15:01:15;2.57;;;2.37;;
2610;SDS011;5612;51.134;17.058;2023-08-31T15:03:48;2.40;;;2.20;;
2610;SDS011;5612;51.134;17.058;2023-08-31T15:06:18;2.23;;;2.03;;
2610;SDS011;5612;51.134;17.058;2023-08-31T15:08:48;2.40;;;2.30;;
2610;SDS011;5612;51.134;17.058;2023-08-31T15:11:19;2.57;;;2.33;;
2610;SDS011;5612;51.134;17.058;2023-08-31T15:13:48;2.33;;;2.23;;
2610;SDS011;5612;51.134;17.058;2023-08-31T15:16:17;2.20;;;2.10;;
2610;SDS011;5612;51.134;17.058;2023-08-31T15:18:50;2.20;;;2.10;;
2610;SDS011;5612;51.134;17.058;2023-08-31T15:21:23;2.00;;;1.90;;
2610;SDS011;5612;51.134;17.058;2023-08-31T15:23:55;2.70;;;1.90;;